sensor_id;sensor_type;location;lat;lon;timestamp;temperature;humidity
41256;DHT22;26989;45.524;10.938;2023-08-06T00:01:46;17.30;99.90
41256;DHT22;26989;45.524;10.938;2023-08-06T00:04:13;17.30;99.90
41256;DHT22;26989;45.524;10.938;2023-08-06T00:06:40;17.30;99.90
41256;DHT22;26989;45.524;10.938;2023-08-06T00:09:07;17.40;99.90
41256;DHT22;26989;45.524;10.938;2023-08-06T00:11:35;17.30;99.90
41256;DHT22;26989;45.524;10.938;2023-08-06T00:14:02;17.30;99.90
41256;DHT22;26989;45.524;10.938;2023-08-06T00:16:28;17.20;99.90
41256;DHT22;26989;45.524;10.938;2023-08-06T00:18:55;17.10;99.90
41256;DHT22;26989;45.524;10.938;2023-08-06T00:21:22;17.10;99.90
41256;DHT22;26989;45.524;10.938;2023-08-06T00:23:49;17.10;99.90
41256;DHT22;26989;45.524;10.938;2023-08-06T00:26:16;17.20;99.90
41256;DHT22;26989;45.524;10.938;2023-08-06T00:28:42;17.30;99.90
41256;DHT22;26989;45.524;10.938;2023-08-06T00:31:09;17.30;99.90
41256;DHT22;26989;45.524;10.938;2023-08-06T00:33:36;17.20;99.90
41256;DHT22;26989;45.524;10.938;2023-08-06T00:36:04;17.20;99.90
41256;DHT22;26989;45.524;10.938;2023-08-06T00:38:31;17.30;99.90
41256;DHT22;26989;45.524;10.938;2023-08-06T00:40:58;17.20;99.90
41256;DHT22;26989;45.524;10.938;2023-08-06T00:43:24;17.20;99.90
41256;DHT22;26989;45.524;10.938;2023-08-06T00:45:51;17.10;99.90
41256;DHT22;26989;45.524;10.938;2023-08-06T00:48:19;17.20;99.90
41256;DHT22;26989;45.524;10.938;2023-08-06T00:50:46;17.20;99.90
41256;DHT22;26989;45.524;10.938;2023-08-06T00:53:13;17.30;99.90
41256;DHT22;26989;45.524;10.938;2023-08-06T00:55:41;17.40;99.90
41256;DHT22;26989;45.524;10.938;2023-08-06T00:58:10;17.30;99.90
41256;DHT22;26989;45.524;10.938;2023-08-06T01:00:38;17.40;99.90
41256;DHT22;26989;45.524;10.938;2023-08-06T01:03:05;17.40;99.90
41256;DHT22;26989;45.524;10.938;2023-08-06T01:05:32;17.40;99.90
41256;DHT22;26989;45.524;10.938;2023-08-06T01:15:53;17.40;99.90
41256;DHT22;26989;45.524;10.938;2023-08-06T01:18:22;17.30;99.90
41256;DHT22;26989;45.524;10.938;2023-08-06T01:20:49;17.30;99.90
41256;DHT22;26989;45.524;10.938;2023-08-06T01:23:19;17.30;99.90
41256;DHT22;26989;45.524;10.938;2023-08-06T01:28:33;17.40;99.90
41256;DHT22;26989;45.524;10.938;2023-08-06T01:31:08;17.50;99.90
41256;DHT22;26989;45.524;10.938;2023-08-06T01:33:40;17.70;99.90
41256;DHT22;26989;45.524;10.938;2023-08-06T01:36:10;17.60;99.90
41256;DHT22;26989;45.524;10.938;2023-08-06T01:38:37;17.50;99.90
41256;DHT22;26989;45.524;10.938;2023-08-06T01:41:04;17.50;99.90
41256;DHT22;26989;45.524;10.938;2023-08-06T01:43:31;17.40;99.90
41256;DHT22;26989;45.524;10.938;2023-08-06T01:45:58;17.40;99.90
41256;DHT22;26989;45.524;10.938;2023-08-06T01:48:25;17.50;99.90
41256;DHT22;26989;45.524;10.938;2023-08-06T01:50:52;17.40;99.90
41256;DHT22;26989;45.524;10.938;2023-08-06T01:53:19;17.40;99.90
41256;DHT22;26989;45.524;10.938;2023-08-06T01:55:49;17.50;99.90
41256;DHT22;26989;45.524;10.938;2023-08-06T01:58:16;17.50;99.90
41256;DHT22;26989;45.524;10.938;2023-08-06T02:00:43;17.60;99.90
41256;DHT22;26989;45.524;10.938;2023-08-06T02:03:10;17.70;99.90
41256;DHT22;26989;45.524;10.938;2023-08-06T02:05:37;17.70;99.90
41256;DHT22;26989;45.524;10.938;2023-08-06T02:08:04;17.70;99.90
41256;DHT22;26989;45.524;10.938;2023-08-06T02:10:31;17.80;99.90
41256;DHT22;26989;45.524;10.938;2023-08-06T02:12:58;17.80;99.90
41256;DHT22;26989;45.524;10.938;2023-08-06T02:15:25;17.80;99.90
41256;DHT22;26989;45.524;10.938;2023-08-06T02:17:51;17.80;99.90
41256;DHT22;26989;45.524;10.938;2023-08-06T02:20:18;17.80;99.90
41256;DHT22;26989;45.524;10.938;2023-08-06T02:22:45;17.70;99.90
41256;DHT22;26989;45.524;10.938;2023-08-06T02:25:12;17.80;99.90
41256;DHT22;26989;45.524;10.938;2023-08-06T02:27:39;17.80;99.90
41256;DHT22;26989;45.524;10.938;2023-08-06T02:30:07;17.70;99.90
41256;DHT22;26989;45.524;10.938;2023-08-06T02:32:33;17.60;99.90
41256;DHT22;26989;45.524;10.938;2023-08-06T02:35:02;17.50;99.90
41256;DHT22;26989;45.524;10.938;2023-08-06T02:37:29;17.50;99.90
41256;DHT22;26989;45.524;10.938;2023-08-06T02:39:56;17.60;99.90
41256;DHT22;26989;45.524;10.938;2023-08-06T02:42:23;17.50;99.90
41256;DHT22;26989;45.524;10.938;2023-08-06T02:44:52;17.60;99.90
41256;DHT22;26989;45.524;10.938;2023-08-06T02:47:19;17.60;99.90
41256;DHT22;26989;45.524;10.938;2023-08-06T02:49:46;17.70;99.90
41256;DHT22;26989;45.524;10.938;2023-08-06T02:52:13;17.70;99.90
41256;DHT22;26989;45.524;10.938;2023-08-06T02:54:40;17.80;99.90
41256;DHT22;26989;45.524;10.938;2023-08-06T02:57:06;17.90;99.90
41256;DHT22;26989;45.524;10.938;2023-08-06T02:59:33;17.90;99.90
41256;DHT22;26989;45.524;10.938;2023-08-06T03:02:00;17.90;99.90
41256;DHT22;26989;45.524;10.938;2023-08-06T03:04:27;17.80;99.90
41256;DHT22;26989;45.524;10.938;2023-08-06T03:06:54;17.70;99.90
41256;DHT22;26989;45.524;10.938;2023-08-06T03:09:21;17.50;99.90
41256;DHT22;26989;45.524;10.938;2023-08-06T03:11:48;17.60;99.90
41256;DHT22;26989;45.524;10.938;2023-08-06T03:14:15;17.60;99.90
41256;DHT22;26989;45.524;10.938;2023-08-06T03:16:41;17.70;99.90
41256;DHT22;26989;45.524;10.938;2023-08-06T03:19:08;17.70;99.90
41256;DHT22;26989;45.524;10.938;2023-08-06T03:21:35;17.80;99.90
41256;DHT22;26989;45.524;10.938;2023-08-06T03:24:02;17.70;99.90
41256;DHT22;26989;45.524;10.938;2023-08-06T03:26:29;17.70;99.90
41256;DHT22;26989;45.524;10.938;2023-08-06T03:28:56;17.70;99.90
41256;DHT22;26989;45.524;10.938;2023-08-06T03:31:23;17.80;99.90
41256;DHT22;26989;45.524;10.938;2023-08-06T03:33:50;17.90;99.90
41256;DHT22;26989;45.524;10.938;2023-08-06T03:36:17;17.90;99.90
41256;DHT22;26989;45.524;10.938;2023-08-06T03:38:44;17.90;99.90
41256;DHT22;26989;45.524;10.938;2023-08-06T03:41:11;17.80;99.90
41256;DHT22;26989;45.524;10.938;2023-08-06T03:43:37;17.80;99.90
41256;DHT22;26989;45.524;10.938;2023-08-06T03:46:04;17.70;99.90
41256;DHT22;26989;45.524;10.938;2023-08-06T03:48:31;17.60;99.90
41256;DHT22;26989;45.524;10.938;2023-08-06T03:50:58;17.60;99.90
41256;DHT22;26989;45.524;10.938;2023-08-06T03:53:27;17.50;99.90
41256;DHT22;26989;45.524;10.938;2023-08-06T03:55:54;17.50;99.90
41256;DHT22;26989;45.524;10.938;2023-08-06T03:58:22;17.60;99.90
41256;DHT22;26989;45.524;10.938;2023-08-06T04:01:00;17.50;99.90
41256;DHT22;26989;45.524;10.938;2023-08-06T04:03:28;17.60;99.90
41256;DHT22;26989;45.524;10.938;2023-08-06T04:05:55;17.60;99.90
41256;DHT22;26989;45.524;10.938;2023-08-06T04:08:22;17.50;99.90
41256;DHT22;26989;45.524;10.938;2023-08-06T04:10:52;17.50;99.90
41256;DHT22;26989;45.524;10.938;2023-08-06T04:13:19;17.50;99.90
41256;DHT22;26989;45.524;10.938;2023-08-06T04:15:47;17.50;99.90
41256;DHT22;26989;45.524;10.938;2023-08-06T04:18:14;17.40;99.90
41256;DHT22;26989;45.524;10.938;2023-08-06T04:20:45;17.30;99.90
41256;DHT22;26989;45.524;10.938;2023-08-06T04:23:13;17.30;99.90
41256;DHT22;26989;45.524;10.938;2023-08-06T04:25:40;17.30;99.90
41256;DHT22;26989;45.524;10.938;2023-08-06T04:28:07;17.20;99.90
41256;DHT22;26989;45.524;10.938;2023-08-06T04:30:34;17.30;99.90
41256;DHT22;26989;45.524;10.938;2023-08-06T04:33:01;17.40;99.90
41256;DHT22;26989;45.524;10.938;2023-08-06T04:35:28;17.40;99.90
41256;DHT22;26989;45.524;10.938;2023-08-06T04:37:55;17.30;99.90
41256;DHT22;26989;45.524;10.938;2023-08-06T04:40:22;17.20;99.90
41256;DHT22;26989;45.524;10.938;2023-08-06T04:42:49;17.20;99.90
41256;DHT22;26989;45.524;10.938;2023-08-06T04:45:16;17.20;99.90
41256;DHT22;26989;45.524;10.938;2023-08-06T04:47:43;17.10;99.90
41256;DHT22;26989;45.524;10.938;2023-08-06T04:50:10;17.20;99.90
41256;DHT22;26989;45.524;10.938;2023-08-06T04:52:37;17.20;99.90
41256;DHT22;26989;45.524;10.938;2023-08-06T04:55:04;17.20;99.90
41256;DHT22;26989;45.524;10.938;2023-08-06T04:57:33;17.30;99.90
41256;DHT22;26989;45.524;10.938;2023-08-06T05:00:00;17.20;99.90
41256;DHT22;26989;45.524;10.938;2023-08-06T05:02:27;17.10;99.90
41256;DHT22;26989;45.524;10.938;2023-08-06T05:04:54;18.00;99.90
41256;DHT22;26989;45.524;10.938;2023-08-06T05:07:21;19.70;99.90
41256;DHT22;26989;45.524;10.938;2023-08-06T05:09:48;21.80;99.90
41256;DHT22;26989;45.524;10.938;2023-08-06T05:12:15;24.10;99.90
41256;DHT22;26989;45.524;10.938;2023-08-06T05:14:41;23.30;99.90
41256;DHT22;26989;45.524;10.938;2023-08-06T05:17:08;24.10;99.90
41256;DHT22;26989;45.524;10.938;2023-08-06T05:19:35;24.70;99.80
41256;DHT22;26989;45.524;10.938;2023-08-06T05:22:02;25.70;98.20
41256;DHT22;26989;45.524;10.938;2023-08-06T05:24:29;25.20;98.10
41256;DHT22;26989;45.524;10.938;2023-08-06T05:26:56;26.90;96.60
41256;DHT22;26989;45.524;10.938;2023-08-06T05:29:23;24.20;99.20
41256;DHT22;26989;45.524;10.938;2023-08-06T05:31:51;24.10;99.10
41256;DHT22;26989;45.524;10.938;2023-08-06T05:34:18;24.60;99.00
41256;DHT22;26989;45.524;10.938;2023-08-06T05:36:45;23.60;98.60
41256;DHT22;26989;45.524;10.938;2023-08-06T05:39:12;24.80;98.80
41256;DHT22;26989;45.524;10.938;2023-08-06T05:41:39;23.30;99.00
41256;DHT22;26989;45.524;10.938;2023-08-06T05:44:06;23.90;98.20
41256;DHT22;26989;45.524;10.938;2023-08-06T05:46:32;24.00;98.00
41256;DHT22;26989;45.524;10.938;2023-08-06T05:48:59;23.20;98.70
41256;DHT22;26989;45.524;10.938;2023-08-06T05:51:27;25.10;97.50
41256;DHT22;26989;45.524;10.938;2023-08-06T05:53:55;24.50;97.00
41256;DHT22;26989;45.524;10.938;2023-08-06T05:56:22;26.00;96.60
41256;DHT22;26989;45.524;10.938;2023-08-06T05:58:49;24.50;96.70
41256;DHT22;26989;45.524;10.938;2023-08-06T06:01:18;29.10;95.20
41256;DHT22;26989;45.524;10.938;2023-08-06T06:03:45;28.90;94.50
41256;DHT22;26989;45.524;10.938;2023-08-06T06:06:12;31.90;91.70
41256;DHT22;26989;45.524;10.938;2023-08-06T06:08:42;29.80;92.20
41256;DHT22;26989;45.524;10.938;2023-08-06T06:11:09;31.30;91.80
41256;DHT22;26989;45.524;10.938;2023-08-06T06:13:36;33.50;90.40
41256;DHT22;26989;45.524;10.938;2023-08-06T06:16:03;34.30;88.20
41256;DHT22;26989;45.524;10.938;2023-08-06T06:18:30;34.90;86.60
41256;DHT22;26989;45.524;10.938;2023-08-06T06:20:57;35.60;87.10
41256;DHT22;26989;45.524;10.938;2023-08-06T06:23:23;35.90;85.60
41256;DHT22;26989;45.524;10.938;2023-08-06T06:25:50;36.00;84.70
41256;DHT22;26989;45.524;10.938;2023-08-06T06:28:18;35.90;84.00
41256;DHT22;26989;45.524;10.938;2023-08-06T06:30:45;35.50;84.20
41256;DHT22;26989;45.524;10.938;2023-08-06T06:33:13;35.80;84.80
41256;DHT22;26989;45.524;10.938;2023-08-06T06:35:41;36.10;85.10
41256;DHT22;26989;45.524;10.938;2023-08-06T06:38:08;35.30;86.40
41256;DHT22;26989;45.524;10.938;2023-08-06T06:40:35;33.80;87.60
41256;DHT22;26989;45.524;10.938;2023-08-06T06:43:04;34.10;88.20
41256;DHT22;26989;45.524;10.938;2023-08-06T06:45:31;35.00;87.50
41256;DHT22;26989;45.524;10.938;2023-08-06T06:47:57;35.60;86.00
41256;DHT22;26989;45.524;10.938;2023-08-06T06:50:24;35.70;86.00
41256;DHT22;26989;45.524;10.938;2023-08-06T06:52:53;35.60;86.30
41256;DHT22;26989;45.524;10.938;2023-08-06T06:55:20;35.70;85.60
41256;DHT22;26989;45.524;10.938;2023-08-06T06:57:47;35.80;85.40
41256;DHT22;26989;45.524;10.938;2023-08-06T07:00:14;35.90;85.50
41256;DHT22;26989;45.524;10.938;2023-08-06T07:02:41;34.10;86.20
41256;DHT22;26989;45.524;10.938;2023-08-06T07:05:08;29.80;90.60
41256;DHT22;26989;45.524;10.938;2023-08-06T07:07:36;27.70;92.70
41256;DHT22;26989;45.524;10.938;2023-08-06T07:10:05;26.70;94.00
41256;DHT22;26989;45.524;10.938;2023-08-06T07:12:32;25.80;95.10
41256;DHT22;26989;45.524;10.938;2023-08-06T07:14:59;25.00;96.00
41256;DHT22;26989;45.524;10.938;2023-08-06T07:17:26;24.70;96.60
41256;DHT22;26989;45.524;10.938;2023-08-06T07:19:53;24.30;97.20
41256;DHT22;26989;45.524;10.938;2023-08-06T07:22:20;24.10;98.10
41256;DHT22;26989;45.524;10.938;2023-08-06T07:24:46;23.90;99.20
41256;DHT22;26989;45.524;10.938;2023-08-06T07:27:13;24.00;99.40
41256;DHT22;26989;45.524;10.938;2023-08-06T07:29:40;23.80;99.90
41256;DHT22;26989;45.524;10.938;2023-08-06T07:32:07;23.70;99.90
41256;DHT22;26989;45.524;10.938;2023-08-06T07:34:34;23.90;99.60
41256;DHT22;26989;45.524;10.938;2023-08-06T07:37:01;23.90;99.30
41256;DHT22;26989;45.524;10.938;2023-08-06T07:39:28;23.70;99.90
41256;DHT22;26989;45.524;10.938;2023-08-06T07:41:55;23.80;99.30
41256;DHT22;26989;45.524;10.938;2023-08-06T07:44:22;23.80;99.80
41256;DHT22;26989;45.524;10.938;2023-08-06T07:46:50;23.80;99.70
41256;DHT22;26989;45.524;10.938;2023-08-06T07:49:17;23.80;99.90
41256;DHT22;26989;45.524;10.938;2023-08-06T07:51:44;23.80;99.70
41256;DHT22;26989;45.524;10.938;2023-08-06T07:54:10;23.50;99.90
41256;DHT22;26989;45.524;10.938;2023-08-06T07:56:37;23.60;99.90
41256;DHT22;26989;45.524;10.938;2023-08-06T07:59:04;23.70;99.70
41256;DHT22;26989;45.524;10.938;2023-08-06T08:01:31;23.80;99.40
41256;DHT22;26989;45.524;10.938;2023-08-06T08:03:58;23.80;98.40
41256;DHT22;26989;45.524;10.938;2023-08-06T08:06:26;23.80;98.80
41256;DHT22;26989;45.524;10.938;2023-08-06T08:08:52;23.90;98.30
41256;DHT22;26989;45.524;10.938;2023-08-06T08:11:20;23.80;98.80
41256;DHT22;26989;45.524;10.938;2023-08-06T08:13:47;23.90;98.40
41256;DHT22;26989;45.524;10.938;2023-08-06T08:16:14;23.90;98.40
41256;DHT22;26989;45.524;10.938;2023-08-06T08:18:41;23.90;98.20
41256;DHT22;26989;45.524;10.938;2023-08-06T08:21:07;23.90;98.30
41256;DHT22;26989;45.524;10.938;2023-08-06T08:23:34;24.00;98.70
41256;DHT22;26989;45.524;10.938;2023-08-06T08:26:01;24.20;96.00
41256;DHT22;26989;45.524;10.938;2023-08-06T08:28:28;24.30;95.20
41256;DHT22;26989;45.524;10.938;2023-08-06T08:30:55;24.30;96.40
41256;DHT22;26989;45.524;10.938;2023-08-06T08:33:22;24.40;96.70
41256;DHT22;26989;45.524;10.938;2023-08-06T08:35:49;24.50;96.70
41256;DHT22;26989;45.524;10.938;2023-08-06T08:38:16;24.40;95.20
41256;DHT22;26989;45.524;10.938;2023-08-06T08:40:46;24.40;95.10
41256;DHT22;26989;45.524;10.938;2023-08-06T08:43:16;24.50;94.80
41256;DHT22;26989;45.524;10.938;2023-08-06T08:45:49;24.40;94.80
41256;DHT22;26989;45.524;10.938;2023-08-06T08:48:17;24.50;94.60
41256;DHT22;26989;45.524;10.938;2023-08-06T08:50:48;24.60;94.60
41256;DHT22;26989;45.524;10.938;2023-08-06T08:53:16;24.60;95.40
41256;DHT22;26989;45.524;10.938;2023-08-06T08:55:46;24.50;96.10
41256;DHT22;26989;45.524;10.938;2023-08-06T08:58:14;24.50;96.50
41256;DHT22;26989;45.524;10.938;2023-08-06T09:00:42;24.50;96.70
41256;DHT22;26989;45.524;10.938;2023-08-06T09:03:09;24.60;96.90
41256;DHT22;26989;45.524;10.938;2023-08-06T09:05:43;24.60;97.60
41256;DHT22;26989;45.524;10.938;2023-08-06T09:08:12;24.70;97.80
41256;DHT22;26989;45.524;10.938;2023-08-06T09:10:43;24.60;97.20
41256;DHT22;26989;45.524;10.938;2023-08-06T09:13:10;24.60;97.00
41256;DHT22;26989;45.524;10.938;2023-08-06T09:15:38;24.50;97.00
41256;DHT22;26989;45.524;10.938;2023-08-06T09:18:12;24.70;97.10
41256;DHT22;26989;45.524;10.938;2023-08-06T09:20:39;24.60;97.00
41256;DHT22;26989;45.524;10.938;2023-08-06T09:23:10;24.70;97.70
41256;DHT22;26989;45.524;10.938;2023-08-06T09:25:40;24.70;97.20
41256;DHT22;26989;45.524;10.938;2023-08-06T09:28:07;24.60;97.10
41256;DHT22;26989;45.524;10.938;2023-08-06T09:30:36;24.60;97.40
41256;DHT22;26989;45.524;10.938;2023-08-06T09:33:04;24.70;97.50
41256;DHT22;26989;45.524;10.938;2023-08-06T09:35:34;24.80;98.30
41256;DHT22;26989;45.524;10.938;2023-08-06T09:38:08;24.90;97.60
41256;DHT22;26989;45.524;10.938;2023-08-06T09:40:36;24.80;97.40
41256;DHT22;26989;45.524;10.938;2023-08-06T09:43:04;24.70;96.80
41256;DHT22;26989;45.524;10.938;2023-08-06T09:45:37;24.70;96.40
41256;DHT22;26989;45.524;10.938;2023-08-06T09:48:08;24.60;96.70
41256;DHT22;26989;45.524;10.938;2023-08-06T09:50:36;24.70;97.30
41256;DHT22;26989;45.524;10.938;2023-08-06T09:53:05;24.70;96.90
41256;DHT22;26989;45.524;10.938;2023-08-06T09:55:33;24.90;97.30
41256;DHT22;26989;45.524;10.938;2023-08-06T09:58:00;24.90;96.90
41256;DHT22;26989;45.524;10.938;2023-08-06T10:00:27;24.80;96.70
41256;DHT22;26989;45.524;10.938;2023-08-06T10:03:00;25.00;97.50
41256;DHT22;26989;45.524;10.938;2023-08-06T10:05:27;25.10;97.60
41256;DHT22;26989;45.524;10.938;2023-08-06T10:07:55;25.10;97.70
41256;DHT22;26989;45.524;10.938;2023-08-06T10:10:24;25.30;97.40
41256;DHT22;26989;45.524;10.938;2023-08-06T10:12:54;25.30;96.60
41256;DHT22;26989;45.524;10.938;2023-08-06T10:15:28;25.30;97.00
41256;DHT22;26989;45.524;10.938;2023-08-06T10:17:58;25.30;96.20
41256;DHT22;26989;45.524;10.938;2023-08-06T10:20:25;25.40;96.20
41256;DHT22;26989;45.524;10.938;2023-08-06T10:23:04;25.40;96.40
41256;DHT22;26989;45.524;10.938;2023-08-06T10:25:32;25.50;96.70
41256;DHT22;26989;45.524;10.938;2023-08-06T10:28:00;25.40;96.60
41256;DHT22;26989;45.524;10.938;2023-08-06T10:30:32;25.20;97.30
41256;DHT22;26989;45.524;10.938;2023-08-06T10:33:01;25.10;96.80
41256;DHT22;26989;45.524;10.938;2023-08-06T10:40:39;25.40;97.00
41256;DHT22;26989;45.524;10.938;2023-08-06T10:43:06;25.50;97.20
41256;DHT22;26989;45.524;10.938;2023-08-06T10:45:36;25.50;96.70
41256;DHT22;26989;45.524;10.938;2023-08-06T10:48:04;25.60;97.00
41256;DHT22;26989;45.524;10.938;2023-08-06T10:50:32;25.70;96.60
41256;DHT22;26989;45.524;10.938;2023-08-06T10:53:04;25.70;95.90
41256;DHT22;26989;45.524;10.938;2023-08-06T10:55:32;25.90;96.30
41256;DHT22;26989;45.524;10.938;2023-08-06T10:57:59;26.00;95.70
41256;DHT22;26989;45.524;10.938;2023-08-06T11:00:26;26.00;95.70
41256;DHT22;26989;45.524;10.938;2023-08-06T11:02:53;26.00;95.40
41256;DHT22;26989;45.524;10.938;2023-08-06T11:05:21;25.90;95.20
41256;DHT22;26989;45.524;10.938;2023-08-06T11:07:48;25.70;95.40
41256;DHT22;26989;45.524;10.938;2023-08-06T11:10:16;25.80;95.90
41256;DHT22;26989;45.524;10.938;2023-08-06T11:12:43;25.90;95.10
41256;DHT22;26989;45.524;10.938;2023-08-06T11:15:10;26.10;94.70
41256;DHT22;26989;45.524;10.938;2023-08-06T11:17:40;25.90;95.00
41256;DHT22;26989;45.524;10.938;2023-08-06T11:20:08;26.30;95.60
41256;DHT22;26989;45.524;10.938;2023-08-06T11:22:36;26.70;94.90
41256;DHT22;26989;45.524;10.938;2023-08-06T11:25:05;27.00;94.50
41256;DHT22;26989;45.524;10.938;2023-08-06T11:27:32;27.00;94.40
41256;DHT22;26989;45.524;10.938;2023-08-06T11:29:59;27.20;93.60
41256;DHT22;26989;45.524;10.938;2023-08-06T11:32:26;27.10;93.90
41256;DHT22;26989;45.524;10.938;2023-08-06T11:34:54;27.20;93.50
41256;DHT22;26989;45.524;10.938;2023-08-06T11:37:24;27.40;93.00
41256;DHT22;26989;45.524;10.938;2023-08-06T11:39:52;27.40;92.80
41256;DHT22;26989;45.524;10.938;2023-08-06T11:42:19;27.80;93.10
41256;DHT22;26989;45.524;10.938;2023-08-06T11:44:46;28.20;92.00
41256;DHT22;26989;45.524;10.938;2023-08-06T11:47:18;28.40;91.50
41256;DHT22;26989;45.524;10.938;2023-08-06T11:49:47;27.80;90.80
41256;DHT22;26989;45.524;10.938;2023-08-06T11:55:02;28.20;90.60
41256;DHT22;26989;45.524;10.938;2023-08-06T11:57:38;27.30;90.40
41256;DHT22;26989;45.524;10.938;2023-08-06T12:00:11;27.90;90.30
41256;DHT22;26989;45.524;10.938;2023-08-06T12:02:42;28.30;90.30
41256;DHT22;26989;45.524;10.938;2023-08-06T12:05:15;28.70;88.10
41256;DHT22;26989;45.524;10.938;2023-08-06T12:07:48;28.40;87.00
41256;DHT22;26989;45.524;10.938;2023-08-06T12:10:16;28.00;87.10
41256;DHT22;26989;45.524;10.938;2023-08-06T12:12:43;27.80;89.40
41256;DHT22;26989;45.524;10.938;2023-08-06T12:15:11;27.50;90.10
41256;DHT22;26989;45.524;10.938;2023-08-06T12:17:38;27.40;90.40
41256;DHT22;26989;45.524;10.938;2023-08-06T12:20:06;27.20;89.90
41256;DHT22;26989;45.524;10.938;2023-08-06T12:22:34;27.00;89.60
41256;DHT22;26989;45.524;10.938;2023-08-06T12:25:07;27.00;90.50
41256;DHT22;26989;45.524;10.938;2023-08-06T12:27:35;26.80;89.90
41256;DHT22;26989;45.524;10.938;2023-08-06T12:30:03;26.60;90.70
41256;DHT22;26989;45.524;10.938;2023-08-06T12:32:31;26.40;91.00
41256;DHT22;26989;45.524;10.938;2023-08-06T12:34:58;26.20;90.70
41256;DHT22;26989;45.524;10.938;2023-08-06T12:37:25;26.10;90.60
41256;DHT22;26989;45.524;10.938;2023-08-06T12:39:52;26.00;91.20
41256;DHT22;26989;45.524;10.938;2023-08-06T12:42:19;26.00;91.10
41256;DHT22;26989;45.524;10.938;2023-08-06T12:44:48;25.90;91.30
41256;DHT22;26989;45.524;10.938;2023-08-06T12:47:16;25.80;91.70
41256;DHT22;26989;45.524;10.938;2023-08-06T12:49:43;25.90;91.80
41256;DHT22;26989;45.524;10.938;2023-08-06T12:52:10;25.90;92.80
41256;DHT22;26989;45.524;10.938;2023-08-06T12:54:39;25.80;93.90
41256;DHT22;26989;45.524;10.938;2023-08-06T12:57:06;25.90;94.50
41256;DHT22;26989;45.524;10.938;2023-08-06T12:59:33;25.90;94.80
41256;DHT22;26989;45.524;10.938;2023-08-06T13:02:00;25.80;94.50
41256;DHT22;26989;45.524;10.938;2023-08-06T13:04:28;25.70;92.90
41256;DHT22;26989;45.524;10.938;2023-08-06T13:06:55;25.30;91.00
41256;DHT22;26989;45.524;10.938;2023-08-06T13:09:22;25.30;90.60
41256;DHT22;26989;45.524;10.938;2023-08-06T13:11:49;25.00;89.10
41256;DHT22;26989;45.524;10.938;2023-08-06T13:14:17;25.10;89.40
41256;DHT22;26989;45.524;10.938;2023-08-06T13:16:44;24.80;90.00
41256;DHT22;26989;45.524;10.938;2023-08-06T13:19:12;24.70;90.60
41256;DHT22;26989;45.524;10.938;2023-08-06T13:24:09;24.70;93.20
41256;DHT22;26989;45.524;10.938;2023-08-06T13:26:36;25.20;90.80
41256;DHT22;26989;45.524;10.938;2023-08-06T13:29:03;25.50;87.20
41256;DHT22;26989;45.524;10.938;2023-08-06T13:31:30;25.70;86.20
41256;DHT22;26989;45.524;10.938;2023-08-06T13:33:57;25.90;85.30
41256;DHT22;26989;45.524;10.938;2023-08-06T13:36:27;25.80;81.40
41256;DHT22;26989;45.524;10.938;2023-08-06T13:38:54;25.90;82.40
41256;DHT22;26989;45.524;10.938;2023-08-06T13:41:22;26.20;82.80
41256;DHT22;26989;45.524;10.938;2023-08-06T13:43:49;26.70;81.80
41256;DHT22;26989;45.524;10.938;2023-08-06T13:46:18;26.80;81.90
41256;DHT22;26989;45.524;10.938;2023-08-06T13:48:48;26.70;81.60
41256;DHT22;26989;45.524;10.938;2023-08-06T13:51:18;27.10;81.70
41256;DHT22;26989;45.524;10.938;2023-08-06T13:53:45;26.40;82.40
41256;DHT22;26989;45.524;10.938;2023-08-06T13:56:12;26.70;83.40
41256;DHT22;26989;45.524;10.938;2023-08-06T13:58:41;26.90;80.80
41256;DHT22;26989;45.524;10.938;2023-08-06T14:01:10;27.30;83.50
41256;DHT22;26989;45.524;10.938;2023-08-06T14:03:37;27.50;83.70
41256;DHT22;26989;45.524;10.938;2023-08-06T14:06:04;27.70;84.10
41256;DHT22;26989;45.524;10.938;2023-08-06T14:08:31;27.80;83.30
41256;DHT22;26989;45.524;10.938;2023-08-06T14:10:58;28.00;82.70
41256;DHT22;26989;45.524;10.938;2023-08-06T14:13:25;28.40;84.30
41256;DHT22;26989;45.524;10.938;2023-08-06T14:15:52;28.50;83.20
41256;DHT22;26989;45.524;10.938;2023-08-06T14:18:19;28.60;84.20
41256;DHT22;26989;45.524;10.938;2023-08-06T14:20:46;28.90;83.40
41256;DHT22;26989;45.524;10.938;2023-08-06T14:23:13;29.10;82.80
41256;DHT22;26989;45.524;10.938;2023-08-06T14:25:40;29.20;83.50
41256;DHT22;26989;45.524;10.938;2023-08-06T14:28:07;29.10;82.30
41256;DHT22;26989;45.524;10.938;2023-08-06T14:30:35;29.20;83.10
41256;DHT22;26989;45.524;10.938;2023-08-06T14:33:02;29.30;85.10
41256;DHT22;26989;45.524;10.938;2023-08-06T14:35:49;29.60;84.30
41256;DHT22;26989;45.524;10.938;2023-08-06T14:38:17;29.60;82.50
41256;DHT22;26989;45.524;10.938;2023-08-06T14:40:44;29.20;84.50
41256;DHT22;26989;45.524;10.938;2023-08-06T14:43:11;29.60;84.40
41256;DHT22;26989;45.524;10.938;2023-08-06T14:45:41;29.90;83.00
41256;DHT22;26989;45.524;10.938;2023-08-06T14:48:08;30.00;84.80
41256;DHT22;26989;45.524;10.938;2023-08-06T14:50:35;30.20;84.40
41256;DHT22;26989;45.524;10.938;2023-08-06T14:53:02;30.30;84.60
41256;DHT22;26989;45.524;10.938;2023-08-06T14:55:32;29.90;82.20
41256;DHT22;26989;45.524;10.938;2023-08-06T14:58:01;29.70;82.80
41256;DHT22;26989;45.524;10.938;2023-08-06T15:00:28;29.30;82.20
41256;DHT22;26989;45.524;10.938;2023-08-06T15:02:55;29.00;82.20
41256;DHT22;26989;45.524;10.938;2023-08-06T15:05:22;29.00;82.40
41256;DHT22;26989;45.524;10.938;2023-08-06T15:07:49;28.90;80.00
41256;DHT22;26989;45.524;10.938;2023-08-06T15:10:15;28.70;82.70
41256;DHT22;26989;45.524;10.938;2023-08-06T15:12:53;28.40;81.60
41256;DHT22;26989;45.524;10.938;2023-08-06T15:15:20;28.50;84.00
41256;DHT22;26989;45.524;10.938;2023-08-06T15:17:49;28.50;85.70
41256;DHT22;26989;45.524;10.938;2023-08-06T15:20:16;28.30;86.70
41256;DHT22;26989;45.524;10.938;2023-08-06T15:22:43;27.70;88.10
41256;DHT22;26989;45.524;10.938;2023-08-06T15:25:10;27.30;88.70
41256;DHT22;26989;45.524;10.938;2023-08-06T15:27:37;27.40;87.90
41256;DHT22;26989;45.524;10.938;2023-08-06T15:30:04;27.10;89.40
41256;DHT22;26989;45.524;10.938;2023-08-06T15:32:31;26.50;90.20
41256;DHT22;26989;45.524;10.938;2023-08-06T15:34:58;26.70;90.10
41256;DHT22;26989;45.524;10.938;2023-08-06T15:37:25;26.80;90.60
41256;DHT22;26989;45.524;10.938;2023-08-06T15:39:53;26.60;91.00